Time;durP1;ratioP1;P1;durP2;ratioP2;P2;SDS_P1;SDS_P2;PMS_P1;PMS_P2;Temp;Humidity;BMP_temperature;BMP_pressure;BME280_temperature;BME280_humidity;BME280_pressure;Samples;Min_cycle;Max_cycle;Signal;HPM_P1;HPM_P2
2022/01/21 00:02:28;;;;;;;13.98;0.80;;;;;;;1.28;96.04;102993.03;5076338;28;20502;-72
2022/01/21 00:05:03;;;;;;;1.38;0.95;;;;;;;1.10;96.50;102993.13;5071300;28;20036;-71
2022/01/21 00:07:30;;;;;;;3.92;1.30;;;;;;;0.96;96.70;102999.22;5070483;28;20719;-73
2022/01/21 00:09:56;;;;;;;5.05;1.10;;;;;;;0.89;97.39;103002.69;5074126;28;20116;-72
2022/01/21 00:12:27;;;;;;;1.30;0.70;;;;;;;1.00;97.74;103006.13;5065239;28;20052;-72
2022/01/21 00:14:58;;;;;;;2.28;0.60;;;;;;;0.93;97.73;103009.59;5075397;28;20177;-72
2022/01/21 00:17:25;;;;;;;2.78;0.90;;;;;;;0.95;97.50;103011.31;5071157;28;20036;-71
2022/01/21 00:30:03;;;;;;;0.93;0.47;;;;;;;1.00;97.94;103011.28;5072716;28;20158;-72
2022/01/21 00:31:02;;;;;;;2.83;1.95;;;;;;;0.95;97.93;103010.44;5055329;28;20052;-72
2022/01/21 00:33:28;;;;;;;1.67;0.93;;;;;;;0.93;97.66;103020.78;5071613;28;20076;-73
2022/01/21 00:36:14;;;;;;;0.30;0.22;;;;;;;0.97;98.21;103008.72;5075096;28;20404;-71
2022/01/21 00:38:42;;;;;;;2.78;1.50;;;;;;;0.94;97.94;103013.91;5072944;28;20040;-72
2022/01/21 00:41:11;;;;;;;2.28;0.75;;;;;;;0.91;98.32;103017.34;5070130;28;20068;-73
2022/01/21 00:43:44;;;;;;;5.55;1.38;;;;;;;0.98;98.31;103020.78;5067093;28;20048;-72
2022/01/21 00:46:11;;;;;;;0.30;0.30;;;;;;;0.93;97.93;103025.97;5077017;28;20059;-73
2022/01/21 00:48:38;;;;;;;0.35;0.35;;;;;;;1.04;98.09;103028.50;5083410;28;20590;-71
2022/01/21 00:51:07;;;;;;;6.65;2.40;;;;;;;1.06;97.62;103021.59;5083175;28;20305;-72
2022/01/21 00:53:34;;;;;;;1.45;0.95;;;;;;;1.10;97.88;103020.75;5075458;28;20044;-72
2022/01/21 00:56:19;;;;;;;0.40;0.40;;;;;;;1.15;97.82;103006.03;5071896;28;20129;-72
2022/01/21 00:58:53;;;;;;;1.50;1.20;;;;;;;1.17;97.52;103004.31;5075367;28;20053;-72
2022/01/21 01:01:19;;;;;;;1.42;0.93;;;;;;;1.22;97.68;103002.56;5075072;28;20050;-72
2022/01/21 01:03:53;;;;;;;2.05;1.02;;;;;;;1.33;97.68;103011.13;5068458;28;20047;-73
2022/01/21 01:06:20;;;;;;;0.30;0.30;;;;;;;1.50;97.10;103027.44;5071106;28;20117;-73
2022/01/21 01:08:51;;;;;;;1.60;0.85;;;;;;;1.52;96.63;103012.75;5073583;28;20067;-73
2022/01/21 01:11:43;;;;;;;0.82;0.80;;;;;;;1.57;96.68;103005.78;5071991;28;20044;-73
2022/01/21 01:20:00;;;;;;;0.60;0.60;;;;;;;1.51;96.93;103001.50;5071151;28;20131;-71
2022/01/21 01:22:39;;;;;;;0.25;0.25;;;;;;;1.50;96.92;102998.94;5072354;28;20044;-71
2022/01/21 01:28:12;;;;;;;7.43;1.38;;;;;;;1.30;97.33;102999.06;5069786;28;20090;-73
2022/01/21 01:30:40;;;;;;;1.98;0.90;;;;;;;1.21;97.28;102995.66;5065993;28;20061;-72
2022/01/21 01:33:14;;;;;;;94.38;57.97;;;;;;;1.10;97.97;103010.41;5072600;28;20052;-71
2022/01/21 01:36:01;;;;;;;36.78;34.58;;;;;;;1.17;98.37;103019.84;5070702;28;20048;-71
2022/01/21 01:39:05;;;;;;;113.22;104.95;;;;;;;1.04;98.29;103007.81;5073107;28;20056;-72
2022/01/21 01:41:37;;;;;;;3.33;3.13;;;;;;;0.91;98.90;103011.31;5072216;28;20040;-72
2022/01/21 01:49:40;;;;;;;1.33;1.23;;;;;;;0.90;99.04;103004.44;5071824;28;20048;-72
2022/01/21 01:52:09;;;;;;;1.63;1.48;;;;;;;0.83;99.22;103002.75;5076514;28;20047;-73
2022/01/21 01:54:41;;;;;;;6.63;2.55;;;;;;;0.66;99.13;103021.78;5080292;28;20051;-72
2022/01/21 01:57:17;;;;;;;1999.90;999.90;;;;;;;0.82;99.51;103011.34;5088635;28;20048;-72
2022/01/21 01:59:53;;;;;;;1.83;0.88;;;;;;;0.91;99.70;103012.19;5095676;28;20043;-72
2022/01/21 02:02:21;;;;;;;1.45;0.57;;;;;;;0.86;99.66;103008.75;5082894;28;20039;-73
2022/01/21 02:04:50;;;;;;;2.15;0.40;;;;;;;0.99;99.42;103009.56;5078391;28;20048;-72
2022/01/21 02:07:23;;;;;;;0.20;0.20;;;;;;;1.09;98.90;103011.25;5071145;28;20087;-72
2022/01/21 02:09:52;;;;;;;0.85;0.77;;;;;;;1.06;99.07;103011.25;5070115;28;20055;-71
2022/01/21 02:12:37;;;;;;;0.57;0.52;;;;;;;1.01;98.86;103023.38;5068220;28;20048;-73
2022/01/21 02:15:23;;;;;;;6.70;0.70;;;;;;;1.03;98.82;103019.91;5075868;28;20044;-72
2022/01/21 02:21:30;;;;;;;1.20;0.95;;;;;;;0.90;97.96;103012.19;5007033;28;20510;-71
2022/01/21 02:23:58;;;;;;;3.20;0.90;;;;;;;0.79;98.20;103006.19;5078945;28;20046;-72
2022/01/21 02:26:25;;;;;;;40.05;3.08;;;;;;;0.69;98.18;103014.88;5075826;28;20055;-73
2022/01/21 02:28:54;;;;;;;3.13;1.15;;;;;;;0.64;98.81;103008.81;5069024;28;20040;-73
2022/01/21 02:31:28;;;;;;;0.70;0.63;;;;;;;0.57;98.27;103017.47;5073672;28;20048;-72
2022/01/21 02:33:55;;;;;;;12.15;2.35;;;;;;;0.51;98.79;103009.72;5068852;28;20048;-71
2022/01/21 02:36:32;;;;;;;1.38;0.95;;;;;;;0.41;98.66;102997.69;5073411;28;20048;-71
2022/01/21 02:39:08;;;;;;;3.22;1.52;;;;;;;0.32;99.02;103002.03;5071129;28;20062;-73
2022/01/21 02:41:37;;;;;;;1.65;1.33;;;;;;;0.33;99.28;103004.59;5069666;28;20051;-71
2022/01/21 02:44:15;;;;;;;4.28;1.38;;;;;;;0.33;100.00;103014.94;5067432;28;20043;-71
2022/01/21 02:46:58;;;;;;;22.75;2.22;;;;;;;0.52;99.57;103010.59;5063930;28;20048;-71
2022/01/21 02:49:37;;;;;;;2.10;1.35;;;;;;;0.43;99.83;103016.66;5079253;28;20044;-71
2022/01/21 02:52:07;;;;;;;2.45;1.50;;;;;;;0.47;99.67;103018.34;5070607;28;20052;-72
2022/01/21 02:54:37;;;;;;;0.88;0.60;;;;;;;0.50;99.65;103014.88;5073097;28;20079;-71
2022/01/21 02:57:13;;;;;;;1.45;1.10;;;;;;;0.53;100.00;103023.53;5073682;28;20051;-73
2022/01/21 02:59:50;;;;;;;1.45;0.60;;;;;;;0.58;99.76;103037.28;5079461;28;20036;-72
2022/01/21 03:02:31;;;;;;;3.53;0.73;;;;;;;0.58;99.90;103036.41;5074531;28;20072;-71
2022/01/21 03:05:12;;;;;;;1.38;0.73;;;;;;;0.67;99.87;103036.41;5074424;28;20070;-71
2022/01/21 03:07:40;;;;;;;1.05;0.60;;;;;;;0.72;99.47;103032.94;5073932;28;20063;-71
2022/01/21 03:10:26;;;;;;;2.85;1.73;;;;;;;0.84;99.55;103040.69;5074712;28;20055;-70
2022/01/21 03:12:53;;;;;;;5.25;1.85;;;;;;;0.88;99.25;103047.53;5073245;28;20072;-72
2022/01/21 03:15:20;;;;;;;0.40;0.35;;;;;;;0.92;98.70;103050.13;5073869;28;20044;-70
2022/01/21 03:17:47;;;;;;;2.67;1.95;;;;;;;0.85;98.37;103038.06;5073809;28;20051;-72
2022/01/21 03:20:15;;;;;;;1999.90;999.90;;;;;;;0.75;98.36;103037.25;5075686;28;20051;-72
2022/01/21 03:22:43;;;;;;;1999.90;999.90;;;;;;;0.60;98.07;103038.16;5075134;28;20042;-71
2022/01/21 03:25:13;;;;;;;1999.90;999.90;;;;;;;0.53;98.56;103039.03;5074303;28;20060;-70
2022/01/21 03:27:46;;;;;;;1999.90;999.90;;;;;;;0.41;98.60;103039.03;5072490;28;20419;-71
2022/01/21 03:30:13;;;;;;;1999.90;999.90;;;;;;;0.36;99.26;103029.56;5075277;28;20044;-71
2022/01/21 03:32:40;;;;;;;1999.90;999.90;;;;;;;0.37;98.70;103037.31;5073349;28;20044;-71
2022/01/21 03:35:23;;;;;;;2.90;1.65;;;;;;;0.40;99.46;103037.31;5072372;28;20055;-72
2022/01/21 03:37:51;;;;;;;0.45;0.32;;;;;;;0.30;99.45;103035.59;5070775;28;20040;-72
2022/01/21 03:40:27;;;;;;;0.43;0.25;;;;;;;0.15;99.90;103029.59;5071459;28;20482;-71
2022/01/21 03:42:57;;;;;;;3.25;1.13;;;;;;;0.11;99.24;103033.03;5068276;28;20047;-71
2022/01/21 03:45:24;;;;;;;5.97;1.23;;;;;;;0.20;99.97;103033.91;5069563;28;20043;-71
2022/01/21 03:47:57;;;;;;;2.63;0.90;;;;;;;0.15;100.00;103034.78;5079286;28;20089;-71
2022/01/21 03:50:31;;;;;;;11.07;1.55;;;;;;;0.11;99.54;103033.03;5074897;28;20054;-72
2022/01/21 03:53:01;;;;;;;6.85;2.05;;;;;;;0.10;100.00;103037.34;5064050;28;20041;-72
2022/01/21 03:55:30;;;;;;;0.82;0.70;;;;;;;0.09;99.88;103038.22;5074497;28;20050;-72
2022/01/21 03:57:57;;;;;;;1.83;0.50;;;;;;;0.01;100.00;103049.41;5073199;28;20047;-72
2022/01/21 04:00:28;;;;;;;3.40;0.38;;;;;;;0.09;99.92;103048.56;5065573;28;20048;-71
2022/01/21 04:03:04;;;;;;;0.85;0.30;;;;;;;0.04;100.00;103047.66;5067918;28;20044;-72
2022/01/21 04:05:37;;;;;;;10.35;1.98;;;;;;;0.09;100.00;103048.56;5074607;28;20048;-72
2022/01/21 04:08:15;;;;;;;10.10;0.88;;;;;;;-0.01;100.00;103054.56;5071110;28;20050;-71
2022/01/21 04:10:48;;;;;;;2.60;0.93;;;;;;;-0.09;100.00;103045.13;5077731;28;20052;-71
2022/01/21 04:13:17;;;;;;;1.10;0.63;;;;;;;-0.16;100.00;103045.09;5071512;28;20808;-72
2022/01/21 04:15:51;;;;;;;0.52;0.38;;;;;;;-0.23;100.00;103038.19;5074636;28;20040;-70
2022/01/21 04:18:22;;;;;;;1.30;1.15;;;;;;;-0.27;100.00;103049.38;5073568;28;20048;-72
2022/01/21 04:21:01;;;;;;;10.07;0.90;;;;;;;-0.33;100.00;103045.06;5072342;28;20119;-72
2022/01/21 04:23:38;;;;;;;2.15;0.68;;;;;;;-0.39;100.00;103039.88;5080658;28;20047;-71
2022/01/21 04:26:20;;;;;;;1.25;0.47;;;;;;;-0.25;100.00;103042.50;5077510;28;20044;-72
2022/01/21 04:28:52;;;;;;;0.32;0.32;;;;;;;-0.31;100.00;103033.00;5076056;28;20105;-72
2022/01/21 04:31:37;;;;;;;0.47;0.40;;;;;;;-0.23;100.00;103030.47;5079090;28;20043;-71
2022/01/21 04:34:05;;;;;;;1.00;0.68;;;;;;;-0.36;100.00;103024.41;5092754;28;20040;-70
2022/01/21 04:36:32;;;;;;;2.25;1.02;;;;;;;-0.40;100.00;103024.41;5097939;28;20064;-70
2022/01/21 04:39:02;;;;;;;5.47;1.30;;;;;;;-0.38;100.00;103027.84;5083444;28;20496;-71
2022/01/21 04:41:54;;;;;;;2.03;0.63;;;;;;;-0.43;100.00;103024.38;5078571;28;20046;-73
2022/01/21 04:47:18;;;;;;;4.55;1.85;;;;;;;-0.58;100.00;103042.44;5073566;28;20052;-72
2022/01/21 04:49:51;;;;;;;0.45;0.43;;;;;;;-0.65;100.00;103051.03;5075690;28;20047;-75
2022/01/21 04:52:18;;;;;;;0.47;0.45;;;;;;;-0.69;100.00;103034.66;5074517;28;20098;-73
2022/01/21 04:54:50;;;;;;;1.15;0.73;;;;;;;-0.50;100.00;103036.44;5074367;28;20126;-72
2022/01/21 04:57:19;;;;;;;0.45;0.35;;;;;;;-0.59;100.00;103035.53;5075449;28;20108;-70
2022/01/21 04:59:48;;;;;;;0.50;0.50;;;;;;;-0.54;100.00;103039.00;5072499;28;20058;-72
2022/01/21 05:02:28;;;;;;;3.10;1.83;;;;;;;-0.55;100.00;103038.13;5071565;28;20051;-71
2022/01/21 05:04:55;;;;;;;2.40;0.95;;;;;;;-0.53;100.00;103032.97;5074158;28;20123;-70
2022/01/21 05:07:24;;;;;;;0.70;0.70;;;;;;;-0.49;100.00;103039.88;5069543;28;20080;-70
2022/01/21 05:09:55;;;;;;;8.82;1.08;;;;;;;-0.51;100.00;103034.72;5071649;28;20040;-72
2022/01/21 05:12:25;;;;;;;2.72;1.65;;;;;;;-0.48;100.00;103033.84;5070644;28;20074;-73
2022/01/21 05:15:11;;;;;;;0.98;0.85;;;;;;;-0.43;100.00;103035.59;5070714;28;20063;-72
2022/01/21 05:17:44;;;;;;;0.85;0.80;;;;;;;-0.44;100.00;103040.72;5069025;28;21599;-71
2022/01/21 05:20:11;;;;;;;1.08;0.85;;;;;;;-0.33;100.00;103044.19;5071974;28;20127;-70
2022/01/21 05:22:38;;;;;;;0.55;0.55;;;;;;;-0.35;100.00;103041.63;5073008;28;20055;-72
2022/01/21 05:25:07;;;;;;;8.60;1.90;;;;;;;-0.35;100.00;103041.63;5079990;27;20182;-71
2022/01/21 05:27:37;;;;;;;0.20;0.20;;;;;;;-0.31;100.00;103042.50;5073431;28;20049;-72
2022/01/21 05:30:04;;;;;;;2.47;1.10;;;;;;;-0.32;100.00;103038.19;5068902;28;20126;-70
2022/01/21 05:32:31;;;;;;;1.10;0.70;;;;;;;-0.44;100.00;103040.72;5070127;28;20600;-73
2022/01/21 05:35:09;;;;;;;0.82;0.73;;;;;;;-0.53;100.00;103040.72;5071788;28;20048;-73
2022/01/21 05:40:27;;;;;;;2.70;1.02;;;;;;;-0.54;100.00;103045.03;5063899;27;22114;-72
2022/01/21 05:43:01;;;;;;;4.28;0.90;;;;;;;-0.55;100.00;103047.59;5048475;28;20053;-71
2022/01/21 05:48:29;;;;;;;4.25;1.35;;;;;;;-0.37;100.00;103043.34;5034784;28;20055;-73
2022/01/21 05:51:05;;;;;;;3.17;1.40;;;;;;;-0.38;100.00;103045.94;5046267;28;20255;-72
2022/01/21 05:53:37;;;;;;;8.40;0.95;;;;;;;-0.48;100.00;103049.34;5053605;28;20529;-71
2022/01/21 05:56:05;;;;;;;0.50;0.50;;;;;;;-0.46;100.00;103042.47;5050335;28;20048;-72
2022/01/21 05:58:37;;;;;;;0.57;0.52;;;;;;;-0.41;100.00;103043.34;5048387;28;20048;-71
2022/01/21 06:01:04;;;;;;;2.67;1.70;;;;;;;-0.40;100.00;103048.47;5050206;28;20056;-72
2022/01/21 06:03:37;;;;;;;0.70;0.50;;;;;;;-0.38;100.00;103040.78;5046954;28;20079;-69
2022/01/21 06:06:06;;;;;;;6.70;2.03;;;;;;;-0.30;100.00;103046.81;5047821;28;20056;-70
2022/01/21 06:08:37;;;;;;;1.00;0.90;;;;;;;-0.30;100.00;103046.81;5057818;28;20040;-68
2022/01/21 06:11:15;;;;;;;3.17;1.13;;;;;;;-0.37;100.00;103052.81;5048851;28;20053;-70
2022/01/21 06:13:46;;;;;;;3.60;0.68;;;;;;;-0.26;100.00;103056.25;5045970;28;20045;-68
2022/01/21 06:16:13;;;;;;;15.63;0.70;;;;;;;-0.24;100.00;103057.97;5050072;28;20048;-69
2022/01/21 06:18:48;;;;;;;2.15;1.45;;;;;;;-0.30;100.00;103067.47;5047998;28;20048;-69
2022/01/21 06:23:53;;;;;;;0.57;0.40;;;;;;;-0.30;100.00;103067.47;5062647;27;20479;-66
2022/01/21 06:26:22;;;;;;;1.08;0.50;;;;;;;-0.23;100.00;103071.78;5046891;28;20047;-71
2022/01/21 06:28:55;;;;;;;2.05;0.95;;;;;;;-0.30;100.00;103086.38;5045951;28;20045;-73
2022/01/21 06:31:28;;;;;;;5.45;1.02;;;;;;;-0.24;100.00;103081.22;5052445;28;20076;-69
2022/01/21 06:34:13;;;;;;;0.50;0.43;;;;;;;-0.40;100.00;103068.28;5057336;28;20046;-69
2022/01/21 06:37:00;;;;;;;1.27;0.70;;;;;;;-0.41;100.00;103076.88;5056806;28;20051;-70
2022/01/21 06:39:29;;;;;;;0.30;0.30;;;;;;;-0.43;100.00;103081.19;5058721;28;20049;-72
2022/01/21 06:41:57;;;;;;;10.60;0.60;;;;;;;-0.48;100.00;103075.16;5057992;28;20045;-70
2022/01/21 06:44:35;;;;;;;1.48;0.88;;;;;;;-0.33;100.00;103088.09;5058200;28;20613;-71
2022/01/21 06:47:23;;;;;;;3.15;0.60;;;;;;;-0.36;100.00;103095.81;5057475;28;20060;-71
2022/01/21 06:49:54;;;;;;;3.33;1.02;;;;;;;-0.48;100.00;103095.81;5056259;28;20048;-72
2022/01/21 06:52:21;;;;;;;0.68;0.68;;;;;;;-0.35;100.00;103087.22;5058145;28;20049;-72
2022/01/21 06:54:56;;;;;;;7.97;2.10;;;;;;;-0.35;100.00;103092.38;5058793;28;20541;-69
2022/01/21 06:57:28;;;;;;;2.95;1.33;;;;;;;-0.50;100.00;103100.09;5058418;28;20047;-70
2022/01/21 06:59:55;;;;;;;0.40;0.40;;;;;;;-0.51;100.00;103109.56;5057188;28;20045;-71
2022/01/21 07:02:25;;;;;;;3.60;1.83;;;;;;;-0.54;100.00;103111.28;5073727;28;20049;-71
2022/01/21 07:04:56;;;;;;;5.72;1.48;;;;;;;-0.50;100.00;103113.88;5057948;28;20493;-70
2022/01/21 07:07:28;;;;;;;2.35;0.70;;;;;;;-0.60;100.00;103106.06;5066719;28;20120;-74
2022/01/21 07:09:55;;;;;;;3.28;1.17;;;;;;;-0.57;100.00;103117.28;5074364;28;20103;-72
2022/01/21 07:12:23;;;;;;;2.42;0.75;;;;;;;-0.45;100.00;103106.16;5075072;28;20484;-72
2022/01/21 07:14:54;;;;;;;;;;;;;;;-0.44;100.00;103103.56;5073212;28;20069;-72
2022/01/21 07:17:21;;;;;;;1.55;0.70;;;;;;;-0.28;100.00;103113.06;5054377;28;19921;-69
2022/01/21 07:19:53;;;;;;;1.92;1.45;;;;;;;-0.31;100.00;103109.63;5053037;28;20414;-72
2022/01/21 07:22:24;;;;;;;0.90;0.85;;;;;;;-0.29;100.00;103113.09;5057204;28;20076;-72
2022/01/21 07:27:32;;;;;;;0.93;0.63;;;;;;;-0.24;100.00;103121.69;5096632;27;20372;-73
2022/01/21 07:30:16;;;;;;;1.95;0.65;;;;;;;-0.21;100.00;103126.88;5106757;27;20051;-70
2022/01/21 07:32:54;;;;;;;0.28;0.28;;;;;;;-0.15;100.00;103124.28;5095312;28;20039;-71
2022/01/21 07:35:30;;;;;;;0.43;0.43;;;;;;;-0.09;100.00;103119.13;5108425;27;20047;-70
2022/01/21 07:38:06;;;;;;;0.85;0.43;;;;;;;-0.02;100.00;103124.31;5095509;28;20043;-71
2022/01/21 07:40:37;;;;;;;1.17;0.77;;;;;;;-0.05;100.00;103126.91;5108013;27;20047;-70
2022/01/21 07:43:11;;;;;;;0.40;0.35;;;;;;;-0.02;100.00;103130.34;5106838;28;20035;-70
2022/01/21 07:45:39;;;;;;;1.65;1.05;;;;;;;0.01;100.00;103134.66;5086446;28;20055;-70
2022/01/21 07:48:07;;;;;;;0.35;0.30;;;;;;;0.05;100.00;103134.66;5108293;27;20043;-71
2022/01/21 07:50:37;;;;;;;0.80;0.70;;;;;;;0.04;100.00;103134.66;5108403;28;20048;-69
2022/01/21 07:53:14;;;;;;;0.95;0.88;;;;;;;0.05;100.00;103132.06;5087338;28;20062;-70
2022/01/21 07:55:52;;;;;;;5.57;1.23;;;;;;;0.02;100.00;103136.38;5109940;27;20048;-72
2022/01/21 07:58:20;;;;;;;0.60;0.60;;;;;;;0.04;100.00;103142.41;5109559;27;20055;-72
2022/01/21 08:01:01;;;;;;;2.47;0.88;;;;;;;0.16;100.00;103142.44;5106798;28;20126;-72
2022/01/21 08:03:27;;;;;;;6.45;1.83;;;;;;;0.24;100.00;103140.72;5092318;28;20466;-71
2022/01/21 08:05:54;;;;;;;1.40;0.85;;;;;;;0.21;100.00;103133.81;5094758;28;20059;-72
2022/01/21 08:08:20;;;;;;;2.55;0.90;;;;;;;0.33;100.00;103131.25;5103062;27;20035;-73
2022/01/21 08:10:55;;;;;;;0.85;0.65;;;;;;;0.29;100.00;103132.09;5089176;28;20044;-69
2022/01/21 08:13:32;;;;;;;0.40;0.40;;;;;;;0.35;100.00;103126.94;5113129;27;20122;-70
2022/01/21 08:16:07;;;;;;;0.60;0.52;;;;;;;0.38;100.00;103121.75;5113339;28;20044;-71
2022/01/21 08:18:37;;;;;;;2.63;1.42;;;;;;;0.48;100.00;103115.72;5102157;27;20059;-73
2022/01/21 08:21:10;;;;;;;1.80;1.05;;;;;;;0.53;100.00;103120.91;5111762;27;20176;-71
2022/01/21 08:23:37;;;;;;;0.70;0.50;;;;;;;0.57;100.00;103131.25;5113941;27;20605;-70
2022/01/21 08:26:20;;;;;;;1.15;0.95;;;;;;;0.69;100.00;103122.59;5115266;28;20055;-71
2022/01/21 08:28:53;;;;;;;7.65;1.13;;;;;;;0.72;100.00;103122.63;5106602;27;20048;-71
2022/01/21 08:31:24;;;;;;;5.65;0.95;;;;;;;0.82;100.00;103120.00;5109715;28;20088;-69
2022/01/21 08:33:56;;;;;;;3.72;0.75;;;;;;;1.01;100.00;103121.69;5106192;27;20751;-72
2022/01/21 08:36:26;;;;;;;0.60;0.50;;;;;;;1.11;100.00;103121.66;5104951;27;20068;-70
2022/01/21 08:39:00;;;;;;;0.55;0.45;;;;;;;1.18;100.00;103127.69;5097699;28;20096;-71
2022/01/21 08:41:28;;;;;;;0.90;0.88;;;;;;;1.20;100.00;103107.81;5075462;28;20044;-70
2022/01/21 08:43:59;;;;;;;18.25;0.90;;;;;;;1.28;100.00;103113.81;5094716;28;20039;-71
2022/01/21 08:46:27;;;;;;;5.07;1.20;;;;;;;1.42;100.00;103114.66;5094097;28;20051;-71
2022/01/21 08:48:56;;;;;;;2.25;1.05;;;;;;;2.06;100.00;103111.66;5094368;28;20101;-71
2022/01/21 08:51:39;;;;;;;5.68;1.85;;;;;;;3.05;100.00;103111.66;5095238;28;20044;-71
2022/01/21 08:54:07;;;;;;;5.30;1.40;;;;;;;3.81;95.24;103114.16;5098774;28;20115;-71
2022/01/21 08:56:37;;;;;;;1.02;0.90;;;;;;;4.76;86.46;103115.19;5096195;28;20066;-71
2022/01/21 08:59:07;;;;;;;1.75;1.30;;;;;;;5.20;84.46;103109.13;5094740;28;20505;-71
2022/01/21 09:01:37;;;;;;;2.63;1.73;;;;;;;5.60;81.32;103116.13;5094448;28;20039;-71
2022/01/21 09:04:20;;;;;;;3.70;1.38;;;;;;;5.55;80.25;103113.63;5080818;28;20052;-71
2022/01/21 09:06:56;;;;;;;1.58;1.10;;;;;;;4.97;82.99;103121.75;5090491;28;20075;-70
2022/01/21 09:09:24;;;;;;;3.28;1.60;;;;;;;4.35;85.71;103123.72;5098295;28;20040;-70
2022/01/21 09:11:53;;;;;;;1.40;0.93;;;;;;;3.66;88.32;103119.53;5089048;28;20051;-69
2022/01/21 09:14:21;;;;;;;9.50;1.30;;;;;;;3.13;90.01;103122.81;5099242;28;20119;-71
2022/01/21 09:16:48;;;;;;;11.60;2.17;;;;;;;2.75;92.17;103118.00;5085383;28;20044;-71
2022/01/21 09:19:23;;;;;;;1.45;0.88;;;;;;;2.40;93.66;103117.47;5099488;28;20051;-70
2022/01/21 09:22:02;;;;;;;6.07;1.95;;;;;;;2.24;94.88;103121.91;5069118;28;20051;-71
2022/01/21 09:24:29;;;;;;;1.33;1.05;;;;;;;2.55;95.95;103119.06;5098699;28;20043;-71
2022/01/21 09:27:11;;;;;;;1.50;0.90;;;;;;;3.16;93.45;103123.63;5090761;28;20506;-71
2022/01/21 09:29:54;;;;;;;4.25;1.35;;;;;;;3.92;91.61;103116.59;5081571;28;20044;-71
2022/01/21 09:32:23;;;;;;;4.93;2.00;;;;;;;5.03;86.12;103117.28;5091982;27;20035;-71
2022/01/21 09:35:10;;;;;;;1.40;0.90;;;;;;;5.47;81.19;103122.47;5098842;28;20051;-68
2022/01/21 09:37:37;;;;;;;1.42;1.20;;;;;;;4.95;82.84;103126.13;5100008;27;20038;-72
2022/01/21 09:40:07;;;;;;;13.63;1.65;;;;;;;5.19;82.34;103139.56;5093956;27;20138;-72
2022/01/21 09:42:38;;;;;;;7.97;1.75;;;;;;;5.59;82.06;103135.25;5090425;28;20627;-72
2022/01/21 09:45:10;;;;;;;5.30;1.05;;;;;;;5.79;80.02;103122.66;5102898;27;20043;-73
2022/01/21 09:48:04;;;;;;;1.33;1.13;;;;;;;5.96;79.80;103123.16;5116051;27;20062;-72
2022/01/21 09:50:32;;;;;;;5.63;1.88;;;;;;;6.00;79.22;103130.88;5103826;27;20108;-71
2022/01/21 09:52:58;;;;;;;5.20;1.63;;;;;;;6.31;79.54;103128.44;5101307;27;20422;-73
2022/01/21 09:55:33;;;;;;;22.63;1.88;;;;;;;5.57;80.39;103130.09;5086249;28;20055;-73
2022/01/21 09:58:19;;;;;;;7.03;1.55;;;;;;;4.62;84.85;103138.88;5095834;27;20071;-71
2022/01/21 10:00:59;;;;;;;6.90;1.88;;;;;;;4.40;87.39;103147.91;5100861;27;20043;-72
2022/01/21 10:03:42;;;;;;;1.73;0.88;;;;;;;4.60;87.83;103146.69;5094789;27;20047;-72
2022/01/21 10:06:13;;;;;;;7.85;0.98;;;;;;;5.16;85.05;103150.03;5091541;28;20043;-74
2022/01/21 10:08:46;;;;;;;1.40;1.20;;;;;;;5.31;83.83;103149.72;5090956;27;20044;-72
2022/01/21 10:11:22;;;;;;;2.65;1.90;;;;;;;5.31;84.28;103147.13;5100128;27;20067;-72
2022/01/21 10:13:57;;;;;;;4.78;1.65;;;;;;;5.15;83.96;103161.34;5093223;28;20189;-71
2022/01/21 10:16:34;;;;;;;1.08;0.98;;;;;;;5.18;85.77;103157.81;5069080;28;20054;-71
2022/01/21 10:19:03;;;;;;;2.65;1.38;;;;;;;5.19;85.22;103163.00;5097212;28;20079;-74
2022/01/21 10:21:31;;;;;;;2.15;1.23;;;;;;;5.09;85.13;103153.63;5095573;27;20075;-72
2022/01/21 10:24:16;;;;;;;8.20;1.85;;;;;;;5.00;86.28;103158.16;5094472;28;20125;-72
2022/01/21 10:26:48;;;;;;;7.70;1.73;;;;;;;4.73;86.86;103153.44;5075022;27;20067;-71
2022/01/21 10:29:22;;;;;;;2.97;1.02;;;;;;;5.07;86.31;103160.63;5077601;28;20036;-72
2022/01/21 10:31:57;;;;;;;1.83;1.42;;;;;;;5.57;85.10;103153.56;5069590;28;20047;-74
2022/01/21 10:34:27;;;;;;;4.40;1.70;;;;;;;5.81;84.28;103160.00;5075429;28;20048;-73
2022/01/21 10:37:07;;;;;;;4.40;1.42;;;;;;;5.69;83.45;103158.50;5078674;28;20110;-72
2022/01/21 10:39:56;;;;;;;3.72;1.50;;;;;;;5.44;84.98;103153.81;5075649;28;20609;-74
2022/01/21 10:42:30;;;;;;;7.70;2.55;;;;;;;5.32;85.33;103166.25;5066087;28;20127;-71
2022/01/21 10:45:09;;;;;;;5.50;1.38;;;;;;;5.49;84.75;103159.78;5078177;28;20039;-71
2022/01/21 10:47:41;;;;;;;1.92;1.23;;;;;;;5.66;83.28;103147.28;5068007;28;20041;-71
2022/01/21 10:50:20;;;;;;;2.03;1.73;;;;;;;6.22;81.88;103149.53;5075650;28;20408;-72
2022/01/21 10:52:54;;;;;;;1.63;1.23;;;;;;;5.93;81.46;103136.28;5068691;28;20089;-70
2022/01/21 10:55:30;;;;;;;1.00;0.90;;;;;;;5.95;82.36;103139.72;5073074;28;20120;-71
2022/01/21 10:58:07;;;;;;;1.52;1.10;;;;;;;6.38;81.53;103134.31;5084585;28;20047;-71
2022/01/21 11:00:34;;;;;;;15.55;2.67;;;;;;;6.64;79.39;103129.31;5055868;28;20040;-71
2022/01/21 11:03:11;;;;;;;1.05;0.77;;;;;;;6.42;79.53;103127.28;5074887;28;20044;-71
2022/01/21 11:05:41;;;;;;;6.57;1.13;;;;;;;6.40;80.70;103129.94;5068960;28;20047;-72
2022/01/21 11:08:16;;;;;;;1.52;1.27;;;;;;;6.01;81.93;103130.00;5068991;28;20044;-71
2022/01/21 11:10:52;;;;;;;2.13;1.52;;;;;;;5.82;82.91;103122.63;5071602;28;20086;-73
2022/01/21 11:13:27;;;;;;;8.52;1.73;;;;;;;5.81;83.40;103121.78;5079705;28;20048;-72
2022/01/21 11:16:13;;;;;;;3.85;1.52;;;;;;;6.02;82.91;103125.66;5075156;28;20044;-72
2022/01/21 11:19:06;;;;;;;8.77;3.03;;;;;;;6.46;80.94;103115.88;5074071;28;20040;-71
2022/01/21 11:21:41;;;;;;;2.67;1.00;;;;;;;6.80;78.67;103114.13;5070401;28;20044;-72
2022/01/21 11:24:23;;;;;;;10.73;2.28;;;;;;;7.00;78.49;103107.47;5072554;28;20048;-73
2022/01/21 11:27:10;;;;;;;6.88;1.45;;;;;;;7.28;75.87;103103.19;5088593;28;20054;-72
2022/01/21 11:29:37;;;;;;;1.63;0.93;;;;;;;7.43;75.11;103092.28;5088696;28;20097;-72
2022/01/21 11:32:16;;;;;;;2.08;1.40;;;;;;;7.63;75.00;103087.31;5092610;28;20050;-70
2022/01/21 11:35:02;;;;;;;4.65;0.95;;;;;;;7.88;73.91;103081.28;5089418;28;20055;-70
2022/01/21 11:37:29;;;;;;;2.20;1.17;;;;;;;7.95;74.08;103077.59;5089188;28;20090;-73
2022/01/21 11:39:56;;;;;;;2.38;0.45;;;;;;;8.12;73.03;103072.69;5076111;28;20055;-70
2022/01/21 11:42:38;;;;;;;4.03;1.80;;;;;;;8.82;71.12;103068.53;5096248;28;20058;-70
2022/01/21 11:45:23;;;;;;;1.60;1.30;;;;;;;8.29;71.67;103070.41;5091668;28;20491;-73
2022/01/21 11:48:49;;;;;;;1.55;1.13;;;;;;;8.26;73.19;103068.72;5084627;28;21549;-73
2022/01/21 11:51:00;;;;;;;9.48;1.63;;;;;;;7.93;74.11;103069.78;5075618;28;20052;-71
2022/01/21 11:53:45;;;;;;;2.50;0.77;;;;;;;7.43;76.41;103066.13;5082675;28;20042;-72
2022/01/21 11:56:43;;;;;;;5.75;1.00;;;;;;;7.13;77.62;103072.25;5078797;28;20040;-72
2022/01/21 11:59:16;;;;;;;1.17;1.08;;;;;;;7.22;77.32;103075.44;5092493;28;20432;-71
2022/01/21 12:01:47;;;;;;;2.15;0.93;;;;;;;7.55;76.89;103061.38;5083670;28;20047;-71
2022/01/21 12:04:43;;;;;;;1.13;0.68;;;;;;;7.75;76.89;103058.19;5075454;28;20059;-71
2022/01/21 12:07:59;;;;;;;4.28;0.68;;;;;;;7.86;76.26;103051.72;5058023;28;20056;-72
2022/01/21 12:10:41;;;;;;;5.00;1.42;;;;;;;7.85;75.83;103054.34;5095655;28;20042;-71
2022/01/21 12:13:21;;;;;;;11.18;1.70;;;;;;;7.74;76.65;103046.00;5097753;28;20052;-72
2022/01/21 12:21:37;;;;;;;0.55;0.45;;;;;;;7.57;77.92;103050.91;5096315;27;20502;-71
2022/01/21 12:24:13;;;;;;;15.57;1.00;;;;;;;7.41;77.64;103052.25;5116503;27;20043;-71
2022/01/21 12:26:58;;;;;;;10.40;1.38;;;;;;;7.30;78.68;103044.72;5095697;28;20043;-70
2022/01/21 12:29:28;;;;;;;0.40;0.30;;;;;;;7.10;79.04;103055.81;5101910;28;20035;-70
2022/01/21 12:32:01;;;;;;;1.90;0.77;;;;;;;6.93;81.24;103047.56;5081717;28;20410;-69
2022/01/21 12:34:29;;;;;;;1.40;0.43;;;;;;;7.17;80.16;103039.91;5093036;27;20055;-75
2022/01/21 12:37:07;;;;;;;1.35;0.50;;;;;;;7.34;79.53;103040.28;5087465;27;20040;-71
2022/01/21 12:39:41;;;;;;;2.15;0.57;;;;;;;7.50;79.91;103036.31;5097798;28;20510;-71
2022/01/21 12:42:35;;;;;;;2.47;1.27;;;;;;;7.53;79.38;103036.19;5096556;27;20399;-71
2022/01/21 12:45:28;;;;;;;2.40;0.65;;;;;;;7.54;79.88;103043.13;5099715;28;20119;-74